sensor_id;sensor_type;location;lat;lon;timestamp;temperature;humidity
34726;DHT22;20951;50.818;4.344;2023-01-19T00:00:54;2.40;99.90
34726;DHT22;20951;50.818;4.344;2023-01-19T00:03:20;2.50;99.90
34726;DHT22;20951;50.818;4.344;2023-01-19T00:05:46;2.30;99.90
34726;DHT22;20951;50.818;4.344;2023-01-19T00:08:25;2.30;99.90
34726;DHT22;20951;50.818;4.344;2023-01-19T00:10:53;2.20;99.90
34726;DHT22;20951;50.818;4.344;2023-01-19T00:13:22;2.20;99.90
34726;DHT22;20951;50.818;4.344;2023-01-19T00:15:48;2.30;99.90
34726;DHT22;20951;50.818;4.344;2023-01-19T00:18:14;2.30;99.90
34726;DHT22;20951;50.818;4.344;2023-01-19T00:20:50;2.30;99.90
34726;DHT22;20951;50.818;4.344;2023-01-19T00:23:16;2.30;99.90
34726;DHT22;20951;50.818;4.344;2023-01-19T00:25:54;2.40;99.90
34726;DHT22;20951;50.818;4.344;2023-01-19T00:28:20;2.40;99.90
34726;DHT22;20951;50.818;4.344;2023-01-19T00:30:46;2.30;99.90
34726;DHT22;20951;50.818;4.344;2023-01-19T00:33:12;2.40;99.90
34726;DHT22;20951;50.818;4.344;2023-01-19T00:35:41;2.40;99.90
34726;DHT22;20951;50.818;4.344;2023-01-19T00:38:07;2.50;99.90
34726;DHT22;20951;50.818;4.344;2023-01-19T00:40:40;2.60;99.90
34726;DHT22;20951;50.818;4.344;2023-01-19T00:43:07;2.60;99.90
34726;DHT22;20951;50.818;4.344;2023-01-19T00:45:36;2.50;99.90
34726;DHT22;20951;50.818;4.344;2023-01-19T00:48:02;2.50;99.90
34726;DHT22;20951;50.818;4.344;2023-01-19T00:50:30;2.50;99.90
34726;DHT22;20951;50.818;4.344;2023-01-19T00:52:57;2.40;99.90
34726;DHT22;20951;50.818;4.344;2023-01-19T00:55:26;2.50;99.90
34726;DHT22;20951;50.818;4.344;2023-01-19T00:57:57;2.50;99.90
34726;DHT22;20951;50.818;4.344;2023-01-19T01:00:30;2.50;99.90
34726;DHT22;20951;50.818;4.344;2023-01-19T01:02:56;2.40;99.90
34726;DHT22;20951;50.818;4.344;2023-01-19T01:05:22;2.40;99.90
34726;DHT22;20951;50.818;4.344;2023-01-19T01:07:50;2.30;99.90
34726;DHT22;20951;50.818;4.344;2023-01-19T01:10:19;2.30;99.90
34726;DHT22;20951;50.818;4.344;2023-01-19T01:12:48;2.20;99.90
34726;DHT22;20951;50.818;4.344;2023-01-19T01:15:16;2.20;99.90
34726;DHT22;20951;50.818;4.344;2023-01-19T01:17:42;2.20;99.90
34726;DHT22;20951;50.818;4.344;2023-01-19T01:20:32;2.20;99.90
34726;DHT22;20951;50.818;4.344;2023-01-19T01:22:59;2.10;99.90
34726;DHT22;20951;50.818;4.344;2023-01-19T01:25:26;2.30;99.90
34726;DHT22;20951;50.818;4.344;2023-01-19T01:27:55;2.20;99.90
34726;DHT22;20951;50.818;4.344;2023-01-19T01:33:11;2.10;99.90
34726;DHT22;20951;50.818;4.344;2023-01-19T01:35:37;2.20;99.90
34726;DHT22;20951;50.818;4.344;2023-01-19T01:38:04;2.10;99.90
34726;DHT22;20951;50.818;4.344;2023-01-19T01:40:30;2.10;99.90
34726;DHT22;20951;50.818;4.344;2023-01-19T01:42:56;2.00;99.90
34726;DHT22;20951;50.818;4.344;2023-01-19T01:45:36;1.90;99.90
34726;DHT22;20951;50.818;4.344;2023-01-19T01:48:11;2.00;99.90
34726;DHT22;20951;50.818;4.344;2023-01-19T01:50:55;2.10;99.90
34726;DHT22;20951;50.818;4.344;2023-01-19T01:53:42;2.00;99.90
34726;DHT22;20951;50.818;4.344;2023-01-19T01:56:13;2.00;99.90
34726;DHT22;20951;50.818;4.344;2023-01-19T01:58:41;2.10;99.90
34726;DHT22;20951;50.818;4.344;2023-01-19T02:01:07;2.10;99.90
34726;DHT22;20951;50.818;4.344;2023-01-19T02:03:51;2.10;99.90
34726;DHT22;20951;50.818;4.344;2023-01-19T02:06:17;2.20;99.90
34726;DHT22;20951;50.818;4.344;2023-01-19T02:08:54;2.10;99.90
34726;DHT22;20951;50.818;4.344;2023-01-19T02:11:40;2.00;99.90
34726;DHT22;20951;50.818;4.344;2023-01-19T02:14:25;2.10;99.90
34726;DHT22;20951;50.818;4.344;2023-01-19T02:16:51;2.00;99.90
34726;DHT22;20951;50.818;4.344;2023-01-19T02:19:24;2.00;99.90
34726;DHT22;20951;50.818;4.344;2023-01-19T02:24:29;2.00;99.90
34726;DHT22;20951;50.818;4.344;2023-01-19T02:26:55;2.00;99.90
34726;DHT22;20951;50.818;4.344;2023-01-19T02:29:23;2.00;99.90
34726;DHT22;20951;50.818;4.344;2023-01-19T02:31:50;1.90;99.90
34726;DHT22;20951;50.818;4.344;2023-01-19T02:34:19;1.80;99.90
34726;DHT22;20951;50.818;4.344;2023-01-19T02:39:19;1.90;99.90
34726;DHT22;20951;50.818;4.344;2023-01-19T02:41:51;1.90;99.90
34726;DHT22;20951;50.818;4.344;2023-01-19T02:44:19;1.90;99.90
34726;DHT22;20951;50.818;4.344;2023-01-19T02:46:47;1.90;99.90
34726;DHT22;20951;50.818;4.344;2023-01-19T02:49:13;1.90;99.90
34726;DHT22;20951;50.818;4.344;2023-01-19T02:51:42;1.90;99.90
34726;DHT22;20951;50.818;4.344;2023-01-19T03:00:32;2.00;99.90
34726;DHT22;20951;50.818;4.344;2023-01-19T03:02:40;1.90;99.90
34726;DHT22;20951;50.818;4.344;2023-01-19T03:05:50;1.90;99.90
34726;DHT22;20951;50.818;4.344;2023-01-19T03:11:09;1.90;99.90
34726;DHT22;20951;50.818;4.344;2023-01-19T03:13:49;2.10;99.90
34726;DHT22;20951;50.818;4.344;2023-01-19T03:16:19;2.00;99.90
34726;DHT22;20951;50.818;4.344;2023-01-19T03:18:50;1.90;99.90
34726;DHT22;20951;50.818;4.344;2023-01-19T03:21:19;1.80;99.90
34726;DHT22;20951;50.818;4.344;2023-01-19T03:23:46;1.80;99.90
34726;DHT22;20951;50.818;4.344;2023-01-19T03:26:18;1.80;99.90
34726;DHT22;20951;50.818;4.344;2023-01-19T03:28:46;1.80;99.90
34726;DHT22;20951;50.818;4.344;2023-01-19T03:31:16;2.00;99.90
34726;DHT22;20951;50.818;4.344;2023-01-19T03:33:47;2.00;99.90
34726;DHT22;20951;50.818;4.344;2023-01-19T03:36:22;1.90;99.90
34726;DHT22;20951;50.818;4.344;2023-01-19T03:38:50;2.10;99.90
34726;DHT22;20951;50.818;4.344;2023-01-19T03:41:19;2.20;99.90
34726;DHT22;20951;50.818;4.344;2023-01-19T03:43:48;2.30;99.90
34726;DHT22;20951;50.818;4.344;2023-01-19T03:46:17;2.20;99.90
34726;DHT22;20951;50.818;4.344;2023-01-19T03:48:44;2.30;99.90
34726;DHT22;20951;50.818;4.344;2023-01-19T03:51:11;2.40;99.90
34726;DHT22;20951;50.818;4.344;2023-01-19T03:53:39;2.50;99.90
34726;DHT22;20951;50.818;4.344;2023-01-19T03:56:08;2.60;99.90
34726;DHT22;20951;50.818;4.344;2023-01-19T03:58:37;2.40;99.90
34726;DHT22;20951;50.818;4.344;2023-01-19T04:01:02;2.40;99.90
34726;DHT22;20951;50.818;4.344;2023-01-19T04:03:29;2.40;99.90
34726;DHT22;20951;50.818;4.344;2023-01-19T04:05:55;2.40;99.90
34726;DHT22;20951;50.818;4.344;2023-01-19T04:08:21;2.50;99.90
34726;DHT22;20951;50.818;4.344;2023-01-19T04:10:47;2.50;99.90
34726;DHT22;20951;50.818;4.344;2023-01-19T04:13:13;2.60;99.90
34726;DHT22;20951;50.818;4.344;2023-01-19T04:15:39;2.40;99.90
34726;DHT22;20951;50.818;4.344;2023-01-19T04:18:05;2.30;99.90
34726;DHT22;20951;50.818;4.344;2023-01-19T04:20:31;2.30;99.90
34726;DHT22;20951;50.818;4.344;2023-01-19T04:22:58;2.20;99.90
34726;DHT22;20951;50.818;4.344;2023-01-19T04:25:25;2.30;99.90
34726;DHT22;20951;50.818;4.344;2023-01-19T04:27:52;2.20;99.90
34726;DHT22;20951;50.818;4.344;2023-01-19T04:30:19;2.10;99.90
34726;DHT22;20951;50.818;4.344;2023-01-19T04:32:46;2.10;99.90
34726;DHT22;20951;50.818;4.344;2023-01-19T04:35:12;2.20;99.90
34726;DHT22;20951;50.818;4.344;2023-01-19T04:37:38;2.30;99.90
34726;DHT22;20951;50.818;4.344;2023-01-19T04:40:05;2.40;99.90
34726;DHT22;20951;50.818;4.344;2023-01-19T04:42:31;2.50;99.90
34726;DHT22;20951;50.818;4.344;2023-01-19T04:44:57;2.30;99.90
34726;DHT22;20951;50.818;4.344;2023-01-19T04:47:23;2.30;99.90
34726;DHT22;20951;50.818;4.344;2023-01-19T04:49:49;2.20;99.90
34726;DHT22;20951;50.818;4.344;2023-01-19T04:52:15;2.30;99.90
34726;DHT22;20951;50.818;4.344;2023-01-19T04:54:41;2.30;99.90
34726;DHT22;20951;50.818;4.344;2023-01-19T04:57:07;2.30;99.90
34726;DHT22;20951;50.818;4.344;2023-01-19T04:59:33;2.30;99.90
34726;DHT22;20951;50.818;4.344;2023-01-19T05:01:59;2.40;99.90
34726;DHT22;20951;50.818;4.344;2023-01-19T05:04:25;2.40;99.90
34726;DHT22;20951;50.818;4.344;2023-01-19T05:06:51;2.50;99.90
34726;DHT22;20951;50.818;4.344;2023-01-19T05:09:18;2.50;99.90
34726;DHT22;20951;50.818;4.344;2023-01-19T05:11:44;2.50;99.90
34726;DHT22;20951;50.818;4.344;2023-01-19T05:14:10;2.60;99.90
34726;DHT22;20951;50.818;4.344;2023-01-19T05:16:36;2.60;99.90
34726;DHT22;20951;50.818;4.344;2023-01-19T05:19:02;2.60;99.90
34726;DHT22;20951;50.818;4.344;2023-01-19T05:21:28;2.60;99.90
34726;DHT22;20951;50.818;4.344;2023-01-19T05:23:54;2.50;99.90
34726;DHT22;20951;50.818;4.344;2023-01-19T05:26:20;2.50;99.90
34726;DHT22;20951;50.818;4.344;2023-01-19T05:28:46;2.40;99.90
34726;DHT22;20951;50.818;4.344;2023-01-19T05:31:12;2.30;99.90
34726;DHT22;20951;50.818;4.344;2023-01-19T05:33:38;2.40;99.90
34726;DHT22;20951;50.818;4.344;2023-01-19T05:36:04;2.30;99.90
34726;DHT22;20951;50.818;4.344;2023-01-19T05:38:30;2.30;99.90
34726;DHT22;20951;50.818;4.344;2023-01-19T05:40:57;2.40;99.90
34726;DHT22;20951;50.818;4.344;2023-01-19T05:43:23;2.30;99.90
34726;DHT22;20951;50.818;4.344;2023-01-19T05:45:52;2.20;99.90
34726;DHT22;20951;50.818;4.344;2023-01-19T05:48:18;2.20;99.90
34726;DHT22;20951;50.818;4.344;2023-01-19T05:50:44;2.30;99.90
34726;DHT22;20951;50.818;4.344;2023-01-19T05:53:10;2.30;99.90
34726;DHT22;20951;50.818;4.344;2023-01-19T05:55:35;2.30;99.90
34726;DHT22;20951;50.818;4.344;2023-01-19T05:58:01;2.40;99.90
34726;DHT22;20951;50.818;4.344;2023-01-19T06:00:27;2.40;99.90
34726;DHT22;20951;50.818;4.344;2023-01-19T06:02:53;2.50;99.90
34726;DHT22;20951;50.818;4.344;2023-01-19T06:05:19;2.60;99.90
34726;DHT22;20951;50.818;4.344;2023-01-19T06:07:45;2.40;99.90
34726;DHT22;20951;50.818;4.344;2023-01-19T06:10:11;2.30;99.90
34726;DHT22;20951;50.818;4.344;2023-01-19T06:12:38;2.30;99.90
34726;DHT22;20951;50.818;4.344;2023-01-19T06:15:06;2.30;99.90
34726;DHT22;20951;50.818;4.344;2023-01-19T06:17:32;2.30;99.90
34726;DHT22;20951;50.818;4.344;2023-01-19T06:19:58;2.40;99.90
34726;DHT22;20951;50.818;4.344;2023-01-19T06:22:24;2.40;99.90
34726;DHT22;20951;50.818;4.344;2023-01-19T06:24:49;2.50;99.90
34726;DHT22;20951;50.818;4.344;2023-01-19T06:27:17;2.50;99.90
34726;DHT22;20951;50.818;4.344;2023-01-19T06:29:45;2.60;99.90
34726;DHT22;20951;50.818;4.344;2023-01-19T06:32:15;2.50;99.90
34726;DHT22;20951;50.818;4.344;2023-01-19T06:34:44;2.50;99.90
34726;DHT22;20951;50.818;4.344;2023-01-19T06:37:12;2.50;99.90
34726;DHT22;20951;50.818;4.344;2023-01-19T06:39:42;2.50;99.90
34726;DHT22;20951;50.818;4.344;2023-01-19T06:42:11;2.60;99.90
34726;DHT22;20951;50.818;4.344;2023-01-19T06:44:40;2.60;99.90
34726;DHT22;20951;50.818;4.344;2023-01-19T06:47:13;2.70;99.90
34726;DHT22;20951;50.818;4.344;2023-01-19T06:49:41;2.70;99.90
34726;DHT22;20951;50.818;4.344;2023-01-19T06:52:11;2.70;99.90
34726;DHT22;20951;50.818;4.344;2023-01-19T06:54:41;2.70;99.90
34726;DHT22;20951;50.818;4.344;2023-01-19T06:57:10;2.60;99.90
34726;DHT22;20951;50.818;4.344;2023-01-19T06:59:40;2.70;99.90
34726;DHT22;20951;50.818;4.344;2023-01-19T07:02:09;2.70;99.90
34726;DHT22;20951;50.818;4.344;2023-01-19T07:04:38;2.70;99.90
34726;DHT22;20951;50.818;4.344;2023-01-19T07:07:06;2.50;99.90
34726;DHT22;20951;50.818;4.344;2023-01-19T07:09:35;2.60;99.90
34726;DHT22;20951;50.818;4.344;2023-01-19T07:12:04;2.60;99.90
34726;DHT22;20951;50.818;4.344;2023-01-19T07:14:33;2.60;99.90
34726;DHT22;20951;50.818;4.344;2023-01-19T07:17:02;2.60;99.90
34726;DHT22;20951;50.818;4.344;2023-01-19T07:19:30;2.70;99.90
34726;DHT22;20951;50.818;4.344;2023-01-19T07:22:00;2.70;99.90
34726;DHT22;20951;50.818;4.344;2023-01-19T07:24:29;2.70;99.90
34726;DHT22;20951;50.818;4.344;2023-01-19T07:27:00;2.50;99.90
34726;DHT22;20951;50.818;4.344;2023-01-19T07:29:29;2.50;99.90
34726;DHT22;20951;50.818;4.344;2023-01-19T07:31:58;2.40;99.90
34726;DHT22;20951;50.818;4.344;2023-01-19T07:34:27;2.50;99.90
34726;DHT22;20951;50.818;4.344;2023-01-19T07:36:56;2.40;99.90
34726;DHT22;20951;50.818;4.344;2023-01-19T07:39:25;2.50;99.90
34726;DHT22;20951;50.818;4.344;2023-01-19T07:41:53;2.40;99.90
34726;DHT22;20951;50.818;4.344;2023-01-19T07:44:22;2.60;99.90
34726;DHT22;20951;50.818;4.344;2023-01-19T07:46:51;2.70;99.90
34726;DHT22;20951;50.818;4.344;2023-01-19T07:49:20;2.90;99.90
34726;DHT22;20951;50.818;4.344;2023-01-19T07:51:49;2.80;99.90
34726;DHT22;20951;50.818;4.344;2023-01-19T07:54:18;2.70;99.90
34726;DHT22;20951;50.818;4.344;2023-01-19T07:56:46;2.70;99.90
34726;DHT22;20951;50.818;4.344;2023-01-19T07:59:15;2.60;99.90
34726;DHT22;20951;50.818;4.344;2023-01-19T08:01:44;2.60;99.90
34726;DHT22;20951;50.818;4.344;2023-01-19T08:04:13;2.80;99.90
34726;DHT22;20951;50.818;4.344;2023-01-19T08:06:44;2.90;99.90
34726;DHT22;20951;50.818;4.344;2023-01-19T08:09:13;2.80;99.90
34726;DHT22;20951;50.818;4.344;2023-01-19T08:11:42;2.70;99.90
34726;DHT22;20951;50.818;4.344;2023-01-19T08:14:10;2.60;99.90
34726;DHT22;20951;50.818;4.344;2023-01-19T08:16:39;2.70;99.90
34726;DHT22;20951;50.818;4.344;2023-01-19T08:19:08;2.90;99.90
34726;DHT22;20951;50.818;4.344;2023-01-19T08:21:37;3.00;99.90
34726;DHT22;20951;50.818;4.344;2023-01-19T08:24:06;3.00;99.90
34726;DHT22;20951;50.818;4.344;2023-01-19T08:26:34;2.70;99.90
34726;DHT22;20951;50.818;4.344;2023-01-19T08:29:05;2.80;99.90
34726;DHT22;20951;50.818;4.344;2023-01-19T08:31:34;2.90;99.90
34726;DHT22;20951;50.818;4.344;2023-01-19T08:34:07;3.00;99.90
34726;DHT22;20951;50.818;4.344;2023-01-19T08:36:36;3.00;99.90
34726;DHT22;20951;50.818;4.344;2023-01-19T08:39:06;3.00;99.90
34726;DHT22;20951;50.818;4.344;2023-01-19T08:41:34;3.10;99.90
34726;DHT22;20951;50.818;4.344;2023-01-19T08:44:03;3.20;99.90
34726;DHT22;20951;50.818;4.344;2023-01-19T08:46:32;3.20;99.90
34726;DHT22;20951;50.818;4.344;2023-01-19T08:49:01;3.10;99.90
34726;DHT22;20951;50.818;4.344;2023-01-19T08:51:30;3.00;99.90
34726;DHT22;20951;50.818;4.344;2023-01-19T08:53:59;2.90;99.90
34726;DHT22;20951;50.818;4.344;2023-01-19T08:56:28;3.00;99.90
34726;DHT22;20951;50.818;4.344;2023-01-19T08:58:58;3.00;99.90
34726;DHT22;20951;50.818;4.344;2023-01-19T09:01:27;2.90;99.90
34726;DHT22;20951;50.818;4.344;2023-01-19T09:03:56;2.70;99.90
34726;DHT22;20951;50.818;4.344;2023-01-19T09:06:26;2.60;99.90
34726;DHT22;20951;50.818;4.344;2023-01-19T09:08:55;2.70;99.90
34726;DHT22;20951;50.818;4.344;2023-01-19T09:11:24;2.70;99.90
34726;DHT22;20951;50.818;4.344;2023-01-19T09:13:53;2.80;99.90
34726;DHT22;20951;50.818;4.344;2023-01-19T09:16:22;2.70;99.90
34726;DHT22;20951;50.818;4.344;2023-01-19T09:18:54;2.70;99.90
34726;DHT22;20951;50.818;4.344;2023-01-19T09:21:26;2.80;99.90
34726;DHT22;20951;50.818;4.344;2023-01-19T09:23:55;2.70;99.90
34726;DHT22;20951;50.818;4.344;2023-01-19T09:26:25;2.60;99.90
34726;DHT22;20951;50.818;4.344;2023-01-19T09:28:53;2.60;99.90
34726;DHT22;20951;50.818;4.344;2023-01-19T09:31:22;2.50;99.90
34726;DHT22;20951;50.818;4.344;2023-01-19T09:33:51;2.60;99.90
34726;DHT22;20951;50.818;4.344;2023-01-19T09:36:20;2.70;99.90
34726;DHT22;20951;50.818;4.344;2023-01-19T09:38:49;2.70;99.90
34726;DHT22;20951;50.818;4.344;2023-01-19T09:41:22;2.70;99.90
34726;DHT22;20951;50.818;4.344;2023-01-19T09:43:55;2.70;99.90
34726;DHT22;20951;50.818;4.344;2023-01-19T09:49:02;2.70;99.90
34726;DHT22;20951;50.818;4.344;2023-01-19T09:51:38;2.70;99.90
34726;DHT22;20951;50.818;4.344;2023-01-19T09:54:16;2.90;99.90
34726;DHT22;20951;50.818;4.344;2023-01-19T09:56:45;2.90;99.90
34726;DHT22;20951;50.818;4.344;2023-01-19T09:59:22;2.80;99.90
34726;DHT22;20951;50.818;4.344;2023-01-19T10:02:04;2.70;99.90
34726;DHT22;20951;50.818;4.344;2023-01-19T10:04:39;2.80;99.90
34726;DHT22;20951;50.818;4.344;2023-01-19T10:17:48;3.00;99.90
34726;DHT22;20951;50.818;4.344;2023-01-19T10:20:29;2.90;99.90
34726;DHT22;20951;50.818;4.344;2023-01-19T10:22:59;2.60;99.90
34726;DHT22;20951;50.818;4.344;2023-01-19T10:25:28;2.70;99.90
34726;DHT22;20951;50.818;4.344;2023-01-19T10:27:58;2.80;99.90
34726;DHT22;20951;50.818;4.344;2023-01-19T10:30:28;2.80;99.90
34726;DHT22;20951;50.818;4.344;2023-01-19T10:32:57;2.90;99.90
34726;DHT22;20951;50.818;4.344;2023-01-19T10:35:26;3.00;99.90
34726;DHT22;20951;50.818;4.344;2023-01-19T10:37:57;3.00;99.90
34726;DHT22;20951;50.818;4.344;2023-01-19T10:46:18;3.20;99.90
34726;DHT22;20951;50.818;4.344;2023-01-19T10:48:51;3.40;99.90
34726;DHT22;20951;50.818;4.344;2023-01-19T10:51:20;3.30;99.90
34726;DHT22;20951;50.818;4.344;2023-01-19T10:53:55;3.20;99.90
34726;DHT22;20951;50.818;4.344;2023-01-19T10:56:35;3.10;99.90
34726;DHT22;20951;50.818;4.344;2023-01-19T10:59:05;3.00;99.90
34726;DHT22;20951;50.818;4.344;2023-01-19T11:01:33;3.10;99.90
34726;DHT22;20951;50.818;4.344;2023-01-19T11:04:20;3.20;99.90
34726;DHT22;20951;50.818;4.344;2023-01-19T11:06:49;3.20;99.90
34726;DHT22;20951;50.818;4.344;2023-01-19T11:09:20;3.00;99.90
34726;DHT22;20951;50.818;4.344;2023-01-19T11:11:50;2.90;99.90
34726;DHT22;20951;50.818;4.344;2023-01-19T11:14:21;3.00;99.90
34726;DHT22;20951;50.818;4.344;2023-01-19T11:16:54;3.00;99.90
34726;DHT22;20951;50.818;4.344;2023-01-19T11:19:30;2.90;99.90
34726;DHT22;20951;50.818;4.344;2023-01-19T11:22:22;3.00;99.90
34726;DHT22;20951;50.818;4.344;2023-01-19T11:24:55;3.20;99.90
34726;DHT22;20951;50.818;4.344;2023-01-19T11:27:24;3.20;99.90
34726;DHT22;20951;50.818;4.344;2023-01-19T11:30:00;3.00;99.90
34726;DHT22;20951;50.818;4.344;2023-01-19T11:32:31;3.00;99.90
34726;DHT22;20951;50.818;4.344;2023-01-19T11:35:47;3.10;99.90
34726;DHT22;20951;50.818;4.344;2023-01-19T11:37:51;3.40;99.90
34726;DHT22;20951;50.818;4.344;2023-01-19T11:40:31;3.50;99.90
34726;DHT22;20951;50.818;4.344;2023-01-19T11:43:00;3.60;99.90
34726;DHT22;20951;50.818;4.344;2023-01-19T11:45:29;3.60;99.90
34726;DHT22;20951;50.818;4.344;2023-01-19T11:48:02;3.60;99.90
34726;DHT22;20951;50.818;4.344;2023-01-19T11:50:38;3.50;99.90
34726;DHT22;20951;50.818;4.344;2023-01-19T11:53:19;3.60;99.90
34726;DHT22;20951;50.818;4.344;2023-01-19T11:55:52;3.70;99.90
34726;DHT22;20951;50.818;4.344;2023-01-19T11:58:22;3.70;99.90
34726;DHT22;20951;50.818;4.344;2023-01-19T12:01:06;3.60;99.90
34726;DHT22;20951;50.818;4.344;2023-01-19T12:04:00;3.50;99.90
34726;DHT22;20951;50.818;4.344;2023-01-19T12:06:51;3.50;99.90
34726;DHT22;20951;50.818;4.344;2023-01-19T12:09:25;3.40;99.90
34726;DHT22;20951;50.818;4.344;2023-01-19T12:17:53;3.60;99.90
34726;DHT22;20951;50.818;4.344;2023-01-19T12:23:22;3.90;99.90
34726;DHT22;20951;50.818;4.344;2023-01-19T12:29:03;3.90;99.90
34726;DHT22;20951;50.818;4.344;2023-01-19T12:31:32;4.00;99.90
34726;DHT22;20951;50.818;4.344;2023-01-19T12:34:42;4.20;99.90
34726;DHT22;20951;50.818;4.344;2023-01-19T12:40:27;4.30;99.90
34726;DHT22;20951;50.818;4.344;2023-01-19T12:43:02;4.20;99.90
34726;DHT22;20951;50.818;4.344;2023-01-19T12:45:32;4.10;99.90
34726;DHT22;20951;50.818;4.344;2023-01-19T12:48:01;4.10;99.90
34726;DHT22;20951;50.818;4.344;2023-01-19T12:50:34;4.10;99.90
34726;DHT22;20951;50.818;4.344;2023-01-19T12:53:15;4.10;99.90
34726;DHT22;20951;50.818;4.344;2023-01-19T12:55:56;4.10;99.90
34726;DHT22;20951;50.818;4.344;2023-01-19T12:58:25;4.20;99.90
34726;DHT22;20951;50.818;4.344;2023-01-19T13:01:15;4.40;99.90
34726;DHT22;20951;50.818;4.344;2023-01-19T13:04:03;4.60;99.90
34726;DHT22;20951;50.818;4.344;2023-01-19T13:09:30;4.90;99.90
34726;DHT22;20951;50.818;4.344;2023-01-19T13:14:44;5.00;99.90
34726;DHT22;20951;50.818;4.344;2023-01-19T13:20:42;5.10;99.90
34726;DHT22;20951;50.818;4.344;2023-01-19T13:23:23;5.40;99.90
34726;DHT22;20951;50.818;4.344;2023-01-19T13:26:03;5.80;99.90
34726;DHT22;20951;50.818;4.344;2023-01-19T13:28:59;6.00;99.90
34726;DHT22;20951;50.818;4.344;2023-01-19T13:31:34;5.90;99.90
34726;DHT22;20951;50.818;4.344;2023-01-19T13:34:04;5.70;99.90
34726;DHT22;20951;50.818;4.344;2023-01-19T13:36:40;5.50;99.90
34726;DHT22;20951;50.818;4.344;2023-01-19T13:41:47;5.20;99.90
34726;DHT22;20951;50.818;4.344;2023-01-19T13:44:28;5.00;99.90
34726;DHT22;20951;50.818;4.344;2023-01-19T13:46:56;4.70;99.90
34726;DHT22;20951;50.818;4.344;2023-01-19T13:49:40;4.80;99.90
34726;DHT22;20951;50.818;4.344;2023-01-19T13:52:24;5.00;99.90
34726;DHT22;20951;50.818;4.344;2023-01-19T13:54:54;5.20;99.90
34726;DHT22;20951;50.818;4.344;2023-01-19T14:00:15;4.90;99.90
34726;DHT22;20951;50.818;4.344;2023-01-19T14:03:39;5.00;99.90
34726;DHT22;20951;50.818;4.344;2023-01-19T14:05:50;4.80;99.90
34726;DHT22;20951;50.818;4.344;2023-01-19T14:08:20;5.00;99.90
34726;DHT22;20951;50.818;4.344;2023-01-19T14:13:31;5.20;99.90
34726;DHT22;20951;50.818;4.344;2023-01-19T14:16:03;5.20;99.90
34726;DHT22;20951;50.818;4.344;2023-01-19T14:18:33;5.40;99.90
34726;DHT22;20951;50.818;4.344;2023-01-19T14:21:06;5.20;99.90
34726;DHT22;20951;50.818;4.344;2023-01-19T14:23:54;5.30;99.90
34726;DHT22;20951;50.818;4.344;2023-01-19T14:26:48;5.40;99.90
34726;DHT22;20951;50.818;4.344;2023-01-19T14:29:25;5.30;99.90
34726;DHT22;20951;50.818;4.344;2023-01-19T14:32:16;5.10;99.90
34726;DHT22;20951;50.818;4.344;2023-01-19T14:37:36;4.90;99.90
34726;DHT22;20951;50.818;4.344;2023-01-19T14:45:28;4.70;99.90
34726;DHT22;20951;50.818;4.344;2023-01-19T14:48:02;5.00;99.90
34726;DHT22;20951;50.818;4.344;2023-01-19T14:50:39;5.10;99.90
34726;DHT22;20951;50.818;4.344;2023-01-19T14:53:18;5.10;99.90
34726;DHT22;20951;50.818;4.344;2023-01-19T14:56:08;5.00;99.90
34726;DHT22;20951;50.818;4.344;2023-01-19T14:58:37;5.00;99.90
34726;DHT22;20951;50.818;4.344;2023-01-19T15:01:05;5.00;99.90
34726;DHT22;20951;50.818;4.344;2023-01-19T15:03:34;4.70;99.90
34726;DHT22;20951;50.818;4.344;2023-01-19T15:06:02;4.60;99.90
34726;DHT22;20951;50.818;4.344;2023-01-19T15:08:32;4.50;99.90
34726;DHT22;20951;50.818;4.344;2023-01-19T15:13:43;4.70;99.90
34726;DHT22;20951;50.818;4.344;2023-01-19T15:16:12;4.70;99.90
34726;DHT22;20951;50.818;4.344;2023-01-19T15:18:41;4.90;99.90
34726;DHT22;20951;50.818;4.344;2023-01-19T15:21:16;4.60;99.90
34726;DHT22;20951;50.818;4.344;2023-01-19T15:23:48;4.40;99.90
34726;DHT22;20951;50.818;4.344;2023-01-19T15:26:18;4.50;99.90
34726;DHT22;20951;50.818;4.344;2023-01-19T15:28:46;4.40;99.90
34726;DHT22;20951;50.818;4.344;2023-01-19T15:31:19;4.50;99.90
34726;DHT22;20951;50.818;4.344;2023-01-19T15:33:47;4.50;99.90
34726;DHT22;20951;50.818;4.344;2023-01-19T15:36:17;4.60;99.90
34726;DHT22;20951;50.818;4.344;2023-01-19T15:38:46;4.60;99.90
34726;DHT22;20951;50.818;4.344;2023-01-19T15:41:26;4.50;99.90
34726;DHT22;20951;50.818;4.344;2023-01-19T15:43:55;4.40;99.90
34726;DHT22;20951;50.818;4.344;2023-01-19T15:46:23;4.30;99.90
34726;DHT22;20951;50.818;4.344;2023-01-19T15:48:51;4.30;99.90
34726;DHT22;20951;50.818;4.344;2023-01-19T15:51:22;4.10;99.90
34726;DHT22;20951;50.818;4.344;2023-01-19T15:53:51;4.00;99.90
34726;DHT22;20951;50.818;4.344;2023-01-19T15:56:29;3.70;99.90
34726;DHT22;20951;50.818;4.344;2023-01-19T15:58:57;3.60;99.90
34726;DHT22;20951;50.818;4.344;2023-01-19T16:01:27;3.40;99.90
34726;DHT22;20951;50.818;4.344;2023-01-19T16:04:03;3.50;99.90
34726;DHT22;20951;50.818;4.344;2023-01-19T16:06:34;3.50;99.90
34726;DHT22;20951;50.818;4.344;2023-01-19T16:09:02;3.60;99.90
34726;DHT22;20951;50.818;4.344;2023-01-19T16:11:31;3.60;99.90
34726;DHT22;20951;50.818;4.344;2023-01-19T16:13:57;3.60;99.90
34726;DHT22;20951;50.818;4.344;2023-01-19T16:16:24;3.60;99.90
34726;DHT22;20951;50.818;4.344;2023-01-19T16:18:50;3.70;99.90
34726;DHT22;20951;50.818;4.344;2023-01-19T16:21:17;3.70;99.90
34726;DHT22;20951;50.818;4.344;2023-01-19T16:23:43;3.70;99.90
34726;DHT22;20951;50.818;4.344;2023-01-19T16:26:27;3.70;99.90
34726;DHT22;20951;50.818;4.344;2023-01-19T16:29:12;3.70;99.90
34726;DHT22;20951;50.818;4.344;2023-01-19T16:31:38;3.60;99.90
34726;DHT22;20951;50.818;4.344;2023-01-19T16:34:04;3.60;99.90
34726;DHT22;20951;50.818;4.344;2023-01-19T16:36:32;3.30;99.90
34726;DHT22;20951;50.818;4.344;2023-01-19T16:39:00;3.30;99.90
34726;DHT22;20951;50.818;4.344;2023-01-19T16:41:27;3.20;99.90
34726;DHT22;20951;50.818;4.344;2023-01-19T16:43:54;3.10;99.90
34726;DHT22;20951;50.818;4.344;2023-01-19T16:46:28;3.20;99.90
34726;DHT22;20951;50.818;4.344;2023-01-19T16:49:01;3.20;99.90
34726;DHT22;20951;50.818;4.344;2023-01-19T16:51:28;3.30;99.90
34726;DHT22;20951;50.818;4.344;2023-01-19T16:53:54;3.20;99.90
34726;DHT22;20951;50.818;4.344;2023-01-19T16:56:20;3.20;99.90
34726;DHT22;20951;50.818;4.344;2023-01-19T16:58:46;3.20;99.90
34726;DHT22;20951;50.818;4.344;2023-01-19T17:01:16;3.10;99.90
34726;DHT22;20951;50.818;4.344;2023-01-19T17:03:42;3.20;99.90
34726;DHT22;20951;50.818;4.344;2023-01-19T17:06:10;3.30;99.90
34726;DHT22;20951;50.818;4.344;2023-01-19T17:08:37;3.30;99.90
34726;DHT22;20951;50.818;4.344;2023-01-19T17:11:21;3.10;99.90
34726;DHT22;20951;50.818;4.344;2023-01-19T17:14:01;3.10;99.90
34726;DHT22;20951;50.818;4.344;2023-01-19T17:16:28;3.20;99.90
34726;DHT22;20951;50.818;4.344;2023-01-19T17:18:56;3.10;99.90
34726;DHT22;20951;50.818;4.344;2023-01-19T17:21:22;3.00;99.90
34726;DHT22;20951;50.818;4.344;2023-01-19T17:23:50;3.00;99.90
34726;DHT22;20951;50.818;4.344;2023-01-19T17:26:18;3.10;99.90